Tallmadge, Ohio
Current Conditions -  °F | °C
As of 5:54 AM on Monday 20 Oct 2014 (Local Time) from KAKR Reporting Station
Overcast Overcast  
Wind Chill: 43°   Ceiling: 11000
Heat Index: 48°   Visibility: 10mi
Dew Point: 38°   Wind: 12mph
Humidity: 68%   Direction: 190°S
Pressure: 29.96"   Gusts: NA
Location:  41.1°N, 81.44°W
Report Text: KAKR 200954Z AUTO 19010KT 10SM OVC110 09/03 A2996 RMK AO2 SLP149 T00890033
Loading
Personal Weather Stations






























Interactive Weather Map
Tropical Storm Tracking
New forecast layout! Learn more

10-Day Weather Forecast

Advertisements
Track Severe Weather on mobile